createdAt,value
2023-01-19T00:00:47.271Z,83.65
2023-01-19T00:03:16.386Z,83.20
2023-01-19T00:05:48.804Z,83.12
2023-01-19T00:08:15.703Z,83.09
2023-01-19T00:10:46.990Z,82.90
2023-01-19T00:13:14.039Z,82.94
2023-01-19T00:15:41.016Z,82.65
2023-01-19T00:18:09.836Z,82.56
2023-01-19T00:20:37.770Z,83.02
2023-01-19T00:23:04.975Z,82.90
2023-01-19T00:25:32.094Z,83.37
2023-01-19T00:28:01.372Z,83.48
2023-01-19T00:30:28.524Z,83.75
2023-01-19T00:32:55.367Z,84.28
2023-01-19T00:35:22.125Z,84.35
2023-01-19T00:37:48.862Z,84.54
2023-01-19T00:40:15.969Z,84.83
2023-01-19T00:42:45.422Z,84.58
2023-01-19T00:45:15.760Z,84.61
2023-01-19T00:47:42.642Z,84.57
2023-01-19T00:50:11.804Z,84.09
2023-01-19T00:52:39.945Z,84.03
2023-01-19T00:55:11.024Z,83.48
2023-01-19T00:57:38.561Z,83.51
2023-01-19T01:00:06.773Z,83.63
2023-01-19T01:02:34.156Z,83.90
2023-01-19T01:05:02.992Z,83.96
2023-01-19T01:07:30.339Z,83.84
2023-01-19T01:09:57.539Z,83.78
2023-01-19T01:12:24.489Z,84.19
2023-01-19T01:14:51.497Z,84.10
2023-01-19T01:17:24.933Z,84.12
2023-01-19T01:19:52.759Z,83.78
2023-01-19T01:22:19.535Z,83.93
2023-01-19T01:24:46.322Z,84.27
2023-01-19T01:27:13.497Z,84.14
2023-01-19T01:29:41.361Z,83.90
2023-01-19T01:32:08.483Z,83.90
2023-01-19T01:34:35.656Z,83.79
2023-01-19T01:37:03.047Z,83.76
2023-01-19T01:39:29.909Z,83.52
2023-01-19T01:41:57.623Z,83.72
2023-01-19T01:44:50.347Z,83.34
2023-01-19T01:47:39.984Z,83.64
2023-01-19T01:50:22.845Z,83.59
2023-01-19T01:53:11.390Z,83.86
2023-01-19T01:55:41.930Z,83.50
2023-01-19T01:58:08.920Z,83.59
2023-01-19T02:00:54.559Z,83.68
2023-01-19T02:03:22.903Z,84.00
2023-01-19T02:05:49.732Z,83.87
2023-01-19T02:09:04.439Z,83.71
2023-01-19T02:11:49.811Z,83.77
2023-01-19T02:14:16.749Z,83.68
2023-01-19T02:16:43.648Z,83.32
2023-01-19T02:19:13.567Z,83.57
2023-01-19T02:22:02.473Z,83.40
2023-01-19T02:24:29.536Z,83.59
2023-01-19T02:26:56.352Z,83.45
2023-01-19T02:29:24.530Z,83.43
2023-01-19T02:31:51.441Z,83.62
2023-01-19T02:34:19.433Z,83.82
2023-01-19T02:36:50.750Z,84.33
2023-01-19T02:39:22.195Z,84.26
2023-01-19T02:41:55.115Z,84.39
2023-01-19T02:44:22.091Z,84.76
2023-01-19T02:46:49.065Z,84.83
2023-01-19T02:49:15.963Z,84.79
2023-01-19T02:51:43.588Z,84.92
2023-01-19T02:54:33.104Z,84.67
2023-01-19T02:57:12.099Z,84.73
2023-01-19T02:59:48.837Z,84.63
2023-01-19T03:02:21.549Z,84.58
2023-01-19T03:05:08.708Z,84.43
2023-01-19T03:07:44.872Z,84.25
2023-01-19T03:10:17.176Z,84.42
2023-01-19T03:13:10.860Z,84.17
2023-01-19T03:15:52.510Z,84.08
2023-01-19T03:18:20.852Z,83.88
2023-01-19T03:20:47.835Z,83.93
2023-01-19T03:23:15.025Z,83.78
2023-01-19T03:25:43.845Z,83.72
2023-01-19T03:28:10.704Z,83.94
2023-01-19T03:30:40.476Z,83.68
2023-01-19T03:33:34.181Z,83.65
2023-01-19T03:36:07.481Z,83.60
2023-01-19T03:38:37.104Z,83.49
2023-01-19T03:41:07.330Z,83.94
2023-01-19T03:43:37.013Z,83.92
2023-01-19T03:46:04.681Z,83.92
2023-01-19T03:48:31.753Z,83.76
2023-01-19T03:51:14.660Z,83.40
2023-01-19T03:53:41.930Z,83.76
2023-01-19T03:56:22.207Z,83.78
2023-01-19T03:58:49.077Z,84.09
2023-01-19T04:01:29.918Z,83.76
2023-01-19T04:04:00.879Z,84.13
2023-01-19T04:06:30.663Z,84.35
2023-01-19T04:08:57.562Z,84.42
2023-01-19T04:11:25.425Z,84.55
2023-01-19T04:13:52.156Z,84.16
2023-01-19T04:16:21.302Z,84.04
2023-01-19T04:18:48.722Z,84.10
2023-01-19T04:21:15.893Z,84.20
2023-01-19T04:23:44.471Z,83.49
2023-01-19T04:26:11.338Z,83.15
2023-01-19T04:28:38.261Z,83.09
2023-01-19T04:31:06.052Z,83.30
2023-01-19T04:33:33.186Z,83.29
2023-01-19T04:36:00.106Z,83.26
2023-01-19T04:38:26.933Z,83.13
2023-01-19T04:40:54.218Z,83.23
2023-01-19T04:43:21.661Z,83.14
2023-01-19T04:45:49.245Z,82.77
2023-01-19T04:48:16.684Z,82.56
2023-01-19T04:50:43.675Z,82.79
2023-01-19T04:53:11.168Z,83.10
2023-01-19T04:55:39.697Z,83.39
2023-01-19T04:58:06.472Z,83.82
2023-01-19T05:00:33.913Z,84.27
2023-01-19T05:03:01.940Z,84.33
2023-01-19T05:05:29.226Z,84.49
2023-01-19T05:07:56.122Z,84.14
2023-01-19T05:10:24.046Z,84.05
2023-01-19T05:12:51.490Z,83.86
2023-01-19T05:15:18.348Z,83.73
2023-01-19T05:17:45.337Z,83.38
2023-01-19T05:20:15.703Z,83.33
2023-01-19T05:22:43.410Z,83.20
2023-01-19T05:25:10.353Z,83.02
2023-01-19T05:27:37.623Z,83.28
2023-01-19T05:30:05.719Z,83.03
2023-01-19T05:32:32.961Z,83.19
2023-01-19T05:34:59.900Z,83.49
2023-01-19T05:37:26.671Z,83.89
2023-01-19T05:39:53.795Z,84.00
2023-01-19T05:42:21.039Z,84.22
2023-01-19T05:44:47.855Z,84.44
2023-01-19T05:47:14.636Z,84.08
2023-01-19T05:49:41.438Z,83.72
2023-01-19T05:52:08.249Z,83.38
2023-01-19T05:54:35.261Z,83.32
2023-01-19T05:57:03.346Z,83.38
2023-01-19T05:59:30.091Z,83.60
2023-01-19T06:01:57.388Z,83.81
2023-01-19T06:04:24.689Z,83.71
2023-01-19T06:06:51.917Z,84.09
2023-01-19T06:09:18.772Z,83.79
2023-01-19T06:11:46.410Z,83.81
2023-01-19T06:14:13.505Z,83.90
2023-01-19T06:16:40.489Z,84.12
2023-01-19T06:19:07.650Z,84.12
2023-01-19T06:21:34.499Z,84.25
2023-01-19T06:24:01.380Z,84.10
2023-01-19T06:26:28.303Z,84.33
2023-01-19T06:28:55.441Z,84.23
2023-01-19T06:31:22.337Z,84.15
2023-01-19T06:33:49.363Z,84.27
2023-01-19T06:36:16.248Z,84.30
2023-01-19T06:38:43.020Z,84.59
2023-01-19T06:41:10.019Z,84.60
2023-01-19T06:43:36.795Z,84.80
2023-01-19T06:46:04.989Z,84.38
2023-01-19T06:48:31.985Z,84.37
2023-01-19T06:50:59.880Z,84.54
2023-01-19T06:53:28.290Z,84.31
2023-01-19T06:55:59.369Z,84.35
2023-01-19T06:58:26.305Z,84.99
2023-01-19T07:00:53.255Z,84.93
2023-01-19T07:03:21.682Z,85.30
2023-01-19T07:05:51.855Z,85.38
2023-01-19T07:08:18.723Z,85.71
2023-01-19T07:11:22.193Z,85.98
2023-01-19T07:13:33.525Z,86.04
2023-01-19T07:16:10.732Z,86.30
2023-01-19T07:18:38.002Z,86.00
2023-01-19T07:21:05.361Z,86.37
2023-01-19T07:23:32.339Z,86.56
2023-01-19T07:26:01.069Z,86.62
2023-01-19T07:28:28.678Z,86.78
2023-01-19T07:30:55.772Z,87.13
2023-01-19T07:33:22.610Z,87.49
2023-01-19T07:35:49.652Z,87.26
2023-01-19T07:38:16.749Z,87.38
2023-01-19T07:40:43.645Z,87.45
2023-01-19T07:43:10.664Z,87.84
2023-01-19T07:45:37.582Z,87.96
2023-01-19T07:48:04.406Z,88.29
2023-01-19T07:50:31.622Z,88.39
2023-01-19T07:52:58.951Z,88.39
2023-01-19T07:55:26.009Z,88.55
2023-01-19T07:57:52.860Z,88.80
2023-01-19T08:00:22.302Z,89.18
2023-01-19T08:02:51.960Z,89.03
2023-01-19T08:05:19.228Z,89.46
2023-01-19T08:07:46.579Z,89.60
2023-01-19T08:10:14.002Z,89.43
2023-01-19T08:12:42.251Z,89.42
2023-01-19T08:15:10.350Z,89.40
2023-01-19T08:17:37.552Z,89.37
2023-01-19T08:20:04.743Z,89.54
2023-01-19T08:22:31.586Z,90.03
2023-01-19T08:24:59.098Z,89.66
2023-01-19T08:27:25.948Z,89.74
2023-01-19T08:29:54.728Z,89.81
2023-01-19T08:32:21.691Z,90.05
2023-01-19T08:34:48.497Z,90.18
2023-01-19T08:37:15.305Z,90.23
2023-01-19T08:39:42.187Z,90.16
2023-01-19T08:42:09.458Z,90.04
2023-01-19T08:44:39.396Z,90.19
2023-01-19T08:47:10.666Z,90.41
2023-01-19T08:49:37.561Z,90.57
2023-01-19T08:52:04.491Z,91.01
2023-01-19T08:54:31.308Z,91.45
2023-01-19T08:56:58.332Z,91.57
2023-01-19T08:59:25.074Z,91.80
2023-01-19T09:01:51.906Z,91.66
2023-01-19T09:04:20.344Z,91.39
2023-01-19T09:06:47.067Z,91.63
2023-01-19T09:09:14.404Z,91.73
2023-01-19T09:11:41.408Z,91.63
2023-01-19T09:14:08.686Z,91.74
2023-01-19T09:16:35.914Z,91.66
2023-01-19T09:19:02.688Z,91.79
2023-01-19T09:21:29.633Z,91.90
2023-01-19T09:23:56.566Z,92.22
2023-01-19T09:26:24.080Z,93.96
2023-01-19T09:28:50.865Z,95.74
2023-01-19T09:31:17.958Z,97.24
2023-01-19T09:33:44.864Z,98.03
2023-01-19T09:36:11.861Z,97.51
2023-01-19T09:38:38.853Z,96.36
2023-01-19T09:41:13.076Z,94.66
2023-01-19T09:43:42.004Z,93.32
2023-01-19T09:46:21.865Z,92.79
2023-01-19T09:48:52.917Z,92.29
2023-01-19T09:51:22.786Z,91.67
2023-01-19T09:54:08.332Z,91.31
2023-01-19T09:56:35.212Z,91.59
2023-01-19T09:59:02.199Z,91.67
2023-01-19T10:01:46.245Z,91.77
2023-01-19T10:04:28.470Z,92.15
2023-01-19T10:07:10.417Z,92.89
2023-01-19T10:09:43.256Z,93.69
2023-01-19T10:12:19.819Z,94.20
2023-01-19T10:15:01.777Z,94.61
2023-01-19T10:17:28.900Z,95.09
2023-01-19T10:19:55.841Z,97.17
2023-01-19T10:22:24.507Z,98.34
2023-01-19T10:25:01.792Z,99.36
2023-01-19T10:27:32.415Z,99.55
2023-01-19T10:29:59.238Z,99.29
2023-01-19T10:32:27.948Z,98.54
2023-01-19T10:34:55.101Z,97.66
2023-01-19T10:37:30.433Z,97.03
2023-01-19T10:40:09.475Z,96.53
2023-01-19T10:42:37.124Z,96.88
2023-01-19T10:45:05.189Z,97.55
2023-01-19T10:47:34.673Z,98.15
2023-01-19T10:50:06.641Z,99.03
2023-01-19T10:52:36.131Z,99.61
2023-01-19T10:55:03.686Z,100.00
2023-01-19T10:57:43.541Z,100.00
2023-01-19T11:00:32.610Z,100.00
2023-01-19T11:03:00.209Z,100.00
2023-01-19T11:05:31.866Z,100.00
2023-01-19T11:07:58.702Z,100.00
2023-01-19T11:10:27.150Z,100.00
2023-01-19T11:13:12.777Z,100.00
2023-01-19T11:15:43.429Z,100.00
2023-01-19T11:18:30.882Z,100.00
2023-01-19T11:21:01.174Z,100.00
2023-01-19T11:23:43.370Z,100.00
2023-01-19T11:26:16.621Z,100.00
2023-01-19T11:28:46.825Z,100.00
2023-01-19T11:31:13.662Z,100.00
2023-01-19T11:33:50.540Z,100.00
2023-01-19T11:36:17.765Z,100.00
2023-01-19T11:38:45.707Z,100.00
2023-01-19T11:41:19.406Z,100.00
2023-01-19T11:43:49.204Z,100.00
2023-01-19T11:46:16.511Z,100.00
2023-01-19T11:48:47.690Z,100.00
2023-01-19T11:51:16.128Z,100.00
2023-01-19T11:53:43.682Z,100.00
2023-01-19T11:56:11.466Z,100.00
2023-01-19T11:58:39.890Z,100.00
2023-01-19T12:01:11.668Z,100.00
2023-01-19T12:03:47.077Z,100.00
2023-01-19T12:06:22.333Z,100.00
2023-01-19T12:08:54.013Z,100.00
2023-01-19T12:11:26.885Z,100.00
2023-01-19T12:13:53.922Z,100.00
2023-01-19T12:16:21.824Z,100.00
2023-01-19T12:18:54.927Z,100.00
2023-01-19T12:21:21.721Z,100.00
2023-01-19T12:23:54.159Z,100.00
2023-01-19T12:26:37.171Z,100.00
2023-01-19T12:29:15.560Z,100.00
2023-01-19T12:31:45.356Z,100.00
2023-01-19T12:34:31.369Z,100.00
2023-01-19T12:37:03.492Z,100.00
2023-01-19T12:39:30.806Z,100.00
2023-01-19T12:42:04.680Z,100.00
2023-01-19T12:44:34.555Z,100.00
2023-01-19T12:47:11.160Z,100.00
2023-01-19T12:49:38.167Z,100.00
2023-01-19T12:52:18.338Z,100.00
2023-01-19T12:54:50.703Z,100.00
2023-01-19T12:57:28.605Z,100.00
2023-01-19T13:00:00.257Z,100.00
2023-01-19T13:02:27.186Z,100.00
2023-01-19T13:05:20.834Z,100.00
2023-01-19T13:08:27.492Z,100.00
2023-01-19T13:11:00.752Z,100.00
2023-01-19T13:13:46.694Z,100.00
2023-01-19T13:16:19.810Z,100.00
2023-01-19T13:18:48.465Z,100.00
2023-01-19T13:21:26.250Z,100.00
2023-01-19T13:23:57.656Z,100.00
2023-01-19T13:26:26.039Z,100.00
2023-01-19T13:28:55.182Z,100.00
2023-01-19T13:31:22.113Z,100.00
2023-01-19T13:33:55.872Z,100.00
2023-01-19T13:36:32.798Z,100.00
2023-01-19T13:39:01.447Z,100.00
2023-01-19T13:41:30.218Z,100.00
2023-01-19T13:44:36.467Z,100.00
2023-01-19T13:47:03.772Z,100.00
2023-01-19T13:49:37.489Z,100.00
2023-01-19T13:52:17.437Z,100.00
2023-01-19T13:54:53.532Z,100.00
2023-01-19T13:57:27.316Z,100.00
2023-01-19T14:00:12.975Z,100.00
2023-01-19T14:02:56.657Z,100.00
2023-01-19T14:05:33.864Z,100.00
2023-01-19T14:08:12.139Z,100.00
2023-01-19T14:10:54.207Z,100.00
2023-01-19T14:13:26.026Z,100.00
2023-01-19T14:15:57.547Z,100.00
2023-01-19T14:18:30.568Z,100.00
2023-01-19T14:21:08.633Z,100.00
2023-01-19T14:23:43.854Z,100.00
2023-01-19T14:26:39.422Z,100.00
2023-01-19T14:29:18.504Z,100.00
2023-01-19T14:31:52.875Z,100.00
2023-01-19T14:34:47.670Z,100.00
2023-01-19T14:37:17.409Z,100.00
2023-01-19T14:39:46.725Z,100.00
2023-01-19T14:42:19.366Z,100.00
2023-01-19T14:44:48.387Z,100.00
2023-01-19T14:47:36.234Z,100.00
2023-01-19T14:50:07.900Z,100.00
2023-01-19T14:52:39.973Z,100.00
2023-01-19T14:55:08.620Z,100.00
2023-01-19T14:57:36.773Z,100.00
2023-01-19T15:00:12.816Z,100.00
2023-01-19T15:02:39.679Z,100.00
2023-01-19T15:05:08.931Z,100.00
2023-01-19T15:07:37.260Z,100.00
2023-01-19T15:10:04.238Z,100.00
2023-01-19T15:12:31.089Z,100.00
2023-01-19T15:14:58.017Z,100.00
2023-01-19T15:17:27.521Z,100.00
2023-01-19T15:19:55.059Z,100.00
2023-01-19T15:22:26.326Z,100.00
2023-01-19T15:24:57.644Z,100.00
2023-01-19T15:27:24.530Z,100.00
2023-01-19T15:29:51.549Z,100.00
2023-01-19T15:32:18.391Z,100.00
2023-01-19T15:34:45.364Z,100.00
2023-01-19T15:37:12.309Z,100.00
2023-01-19T15:39:39.990Z,100.00
2023-01-19T15:42:11.331Z,100.00
2023-01-19T15:44:40.049Z,100.00
2023-01-19T15:47:06.874Z,100.00
2023-01-19T15:49:33.707Z,100.00
2023-01-19T15:52:00.815Z,100.00
2023-01-19T15:54:27.950Z,100.00
2023-01-19T15:56:58.329Z,100.00
2023-01-19T15:59:25.502Z,100.00
2023-01-19T16:01:52.544Z,100.00
2023-01-19T16:04:19.647Z,100.00
2023-01-19T16:06:46.611Z,100.00
2023-01-19T16:09:18.607Z,100.00
2023-01-19T16:11:49.837Z,100.00
2023-01-19T16:14:18.014Z,100.00
2023-01-19T16:16:46.285Z,100.00
2023-01-19T16:19:15.101Z,100.00
2023-01-19T16:21:44.001Z,100.00
2023-01-19T16:24:10.782Z,100.00
2023-01-19T16:26:37.800Z,100.00
2023-01-19T16:29:09.000Z,100.00
2023-01-19T16:31:36.797Z,100.00
2023-01-19T16:34:03.797Z,100.00
2023-01-19T16:36:32.369Z,100.00
2023-01-19T16:39:06.853Z,100.00
2023-01-19T16:41:34.287Z,100.00
2023-01-19T16:44:01.181Z,100.00
2023-01-19T16:46:30.200Z,100.00
2023-01-19T16:49:04.364Z,100.00
2023-01-19T16:51:31.842Z,100.00
2023-01-19T16:53:58.694Z,100.00
2023-01-19T16:56:25.450Z,100.00
2023-01-19T16:58:56.227Z,100.00
2023-01-19T17:01:23.431Z,100.00
2023-01-19T17:03:50.463Z,100.00
2023-01-19T17:06:18.445Z,100.00
2023-01-19T17:08:45.228Z,100.00
2023-01-19T17:11:22.684Z,100.00
2023-01-19T17:13:55.577Z,100.00
2023-01-19T17:16:26.230Z,100.00
2023-01-19T17:18:53.594Z,100.00
2023-01-19T17:21:20.446Z,100.00
2023-01-19T17:23:48.512Z,100.00
2023-01-19T17:26:16.101Z,100.00
2023-01-19T17:28:43.204Z,100.00
2023-01-19T17:31:14.287Z,100.00
2023-01-19T17:33:43.071Z,100.00
2023-01-19T17:36:13.059Z,100.00
2023-01-19T17:38:40.507Z,100.00
2023-01-19T17:41:16.919Z,100.00
2023-01-19T17:43:44.343Z,100.00
2023-01-19T17:46:11.294Z,100.00
2023-01-19T17:48:38.297Z,100.00
2023-01-19T17:51:06.145Z,100.00
2023-01-19T17:53:36.572Z,100.00
2023-01-19T17:56:08.256Z,100.00
2023-01-19T17:58:35.139Z,100.00
2023-01-19T18:01:12.639Z,100.00
2023-01-19T18:03:39.774Z,100.00
2023-01-19T18:06:07.043Z,100.00
2023-01-19T18:08:34.906Z,100.00
2023-01-19T18:11:01.808Z,100.00
2023-01-19T18:13:29.179Z,100.00
2023-01-19T18:16:08.022Z,100.00
2023-01-19T18:18:35.447Z,100.00
2023-01-19T18:21:04.067Z,100.00
2023-01-19T18:23:31.095Z,100.00
2023-01-19T18:25:59.973Z,100.00
2023-01-19T18:28:26.986Z,100.00
2023-01-19T18:30:54.626Z,100.00
2023-01-19T18:33:21.514Z,100.00
2023-01-19T18:35:48.549Z,100.00
2023-01-19T18:38:15.448Z,100.00
2023-01-19T18:40:42.338Z,100.00
2023-01-19T18:43:09.810Z,100.00
2023-01-19T18:45:38.402Z,100.00
2023-01-19T18:48:05.443Z,100.00
2023-01-19T18:50:32.731Z,100.00
2023-01-19T18:52:59.905Z,100.00
2023-01-19T18:55:26.771Z,100.00
2023-01-19T18:57:53.921Z,100.00
2023-01-19T19:00:21.186Z,100.00
2023-01-19T19:02:47.996Z,100.00
2023-01-19T19:05:15.118Z,100.00
2023-01-19T19:07:57.626Z,100.00
2023-01-19T19:10:24.599Z,100.00
2023-01-19T19:12:51.356Z,100.00
2023-01-19T19:15:18.280Z,100.00
2023-01-19T19:17:45.023Z,100.00
2023-01-19T19:20:12.753Z,100.00
2023-01-19T19:22:39.972Z,100.00
2023-01-19T19:25:07.029Z,100.00
2023-01-19T19:27:33.812Z,100.00
2023-01-19T19:30:00.618Z,100.00
2023-01-19T19:32:27.379Z,100.00
2023-01-19T19:34:55.839Z,100.00
2023-01-19T19:37:22.672Z,100.00
2023-01-19T19:39:49.694Z,100.00
2023-01-19T19:42:16.477Z,100.00
2023-01-19T19:44:43.362Z,100.00
2023-01-19T19:47:10.073Z,100.00
2023-01-19T19:49:36.925Z,100.00
2023-01-19T19:52:03.847Z,100.00
2023-01-19T19:54:30.623Z,100.00
2023-01-19T19:56:57.349Z,100.00
2023-01-19T19:59:24.296Z,100.00
2023-01-19T20:01:54.039Z,100.00
2023-01-19T20:04:22.941Z,100.00
2023-01-19T20:06:50.089Z,100.00
2023-01-19T20:09:17.171Z,100.00
2023-01-19T20:11:45.115Z,100.00
2023-01-19T20:14:12.776Z,100.00
2023-01-19T20:16:39.910Z,100.00
2023-01-19T20:19:06.990Z,100.00
2023-01-19T20:21:37.484Z,100.00
2023-01-19T20:24:06.473Z,100.00
2023-01-19T20:26:36.737Z,100.00
2023-01-19T20:29:06.937Z,100.00
2023-01-19T20:31:35.449Z,100.00
2023-01-19T20:34:04.843Z,100.00
2023-01-19T20:36:32.594Z,100.00
2023-01-19T20:38:59.726Z,100.00
2023-01-19T20:41:26.729Z,100.00
2023-01-19T20:43:53.779Z,100.00
2023-01-19T20:46:20.563Z,100.00
2023-01-19T20:48:53.125Z,100.00
2023-01-19T20:51:20.685Z,100.00
2023-01-19T20:53:47.604Z,100.00
2023-01-19T20:56:14.686Z,100.00
2023-01-19T20:58:41.599Z,100.00
2023-01-19T21:01:15.622Z,100.00
2023-01-19T21:03:42.684Z,100.00
2023-01-19T21:06:09.676Z,100.00
2023-01-19T21:08:37.030Z,100.00
2023-01-19T21:11:04.285Z,100.00
2023-01-19T21:13:31.746Z,100.00
2023-01-19T21:15:59.192Z,100.00
2023-01-19T21:18:28.060Z,100.00
2023-01-19T21:20:55.650Z,100.00
2023-01-19T21:23:22.402Z,100.00
2023-01-19T21:25:53.089Z,100.00
2023-01-19T21:28:20.020Z,100.00
2023-01-19T21:30:46.852Z,100.00
2023-01-19T21:33:13.979Z,100.00
2023-01-19T21:35:40.711Z,100.00
2023-01-19T21:38:07.645Z,100.00
2023-01-19T21:40:34.527Z,100.00
2023-01-19T21:43:01.383Z,100.00
2023-01-19T21:45:28.212Z,100.00
2023-01-19T21:47:55.104Z,100.00
2023-01-19T21:50:21.884Z,100.00
2023-01-19T21:52:48.629Z,100.00
2023-01-19T21:55:15.701Z,100.00
2023-01-19T21:57:42.609Z,100.00
2023-01-19T22:00:10.465Z,100.00
2023-01-19T22:02:39.096Z,100.00
2023-01-19T22:05:06.721Z,100.00
2023-01-19T22:07:33.461Z,100.00
2023-01-19T22:10:00.494Z,100.00
2023-01-19T22:12:27.426Z,100.00
2023-01-19T22:14:54.322Z,100.00
2023-01-19T22:17:21.119Z,100.00
2023-01-19T22:19:48.468Z,100.00
2023-01-19T22:22:15.442Z,100.00
2023-01-19T22:24:46.726Z,100.00
2023-01-19T22:27:13.637Z,100.00
2023-01-19T22:29:40.362Z,100.00
2023-01-19T22:32:07.329Z,100.00
2023-01-19T22:34:34.318Z,100.00
2023-01-19T22:37:01.288Z,100.00
2023-01-19T22:39:28.243Z,100.00
2023-01-19T22:41:54.989Z,100.00
2023-01-19T22:44:22.031Z,100.00
2023-01-19T22:46:49.691Z,100.00
2023-01-19T22:49:17.559Z,100.00
2023-01-19T22:51:44.563Z,100.00
2023-01-19T22:54:11.584Z,100.00
2023-01-19T22:56:38.841Z,100.00
2023-01-19T22:59:06.059Z,100.00
2023-01-19T23:01:37.091Z,100.00
2023-01-19T23:04:04.659Z,100.00
2023-01-19T23:06:33.709Z,100.00
2023-01-19T23:09:01.925Z,100.00
2023-01-19T23:11:39.556Z,100.00
2023-01-19T23:14:11.752Z,100.00
2023-01-19T23:16:38.714Z,100.00
2023-01-19T23:19:05.714Z,100.00
2023-01-19T23:21:32.824Z,100.00
2023-01-19T23:24:01.281Z,100.00
2023-01-19T23:26:28.840Z,100.00
2023-01-19T23:28:56.853Z,100.00
2023-01-19T23:31:31.081Z,100.00
2023-01-19T23:34:03.031Z,100.00
2023-01-19T23:36:32.230Z,100.00
2023-01-19T23:39:01.394Z,100.00
2023-01-19T23:41:29.072Z,100.00
2023-01-19T23:43:55.983Z,100.00
2023-01-19T23:46:22.972Z,100.00
2023-01-19T23:48:50.327Z,100.00
2023-01-19T23:51:19.034Z,100.00
2023-01-19T23:53:45.965Z,100.00
2023-01-19T23:56:14.613Z,100.00
2023-01-19T23:58:41.830Z,100.00
